sensor_id;sensor_type;location;lat;lon;timestamp;P1;durP1;ratioP1;P2;durP2;ratioP2
14599;SDS011;7386;45.586;12.854;2023-06-04T00:00:16;6.13;;;5.00;;
14599;SDS011;7386;45.586;12.854;2023-06-04T00:02:46;6.63;;;5.07;;
14599;SDS011;7386;45.586;12.854;2023-06-04T00:05:15;6.32;;;4.78;;
14599;SDS011;7386;45.586;12.854;2023-06-04T00:07:43;6.15;;;4.93;;
14599;SDS011;7386;45.586;12.854;2023-06-04T00:10:12;5.75;;;4.82;;
14599;SDS011;7386;45.586;12.854;2023-06-04T00:12:40;6.15;;;5.03;;
14599;SDS011;7386;45.586;12.854;2023-06-04T00:15:09;7.25;;;4.93;;
14599;SDS011;7386;45.586;12.854;2023-06-04T00:17:38;6.20;;;4.80;;
14599;SDS011;7386;45.586;12.854;2023-06-04T00:20:08;7.38;;;4.90;;
14599;SDS011;7386;45.586;12.854;2023-06-04T00:22:37;6.55;;;4.60;;
14599;SDS011;7386;45.586;12.854;2023-06-04T00:25:08;6.50;;;5.10;;
14599;SDS011;7386;45.586;12.854;2023-06-04T00:27:37;5.63;;;4.78;;
14599;SDS011;7386;45.586;12.854;2023-06-04T00:30:06;5.90;;;5.00;;
14599;SDS011;7386;45.586;12.854;2023-06-04T00:32:34;8.35;;;5.25;;
14599;SDS011;7386;45.586;12.854;2023-06-04T00:35:03;7.30;;;5.43;;
14599;SDS011;7386;45.586;12.854;2023-06-04T00:37:33;5.68;;;4.85;;
14599;SDS011;7386;45.586;12.854;2023-06-04T00:40:02;7.82;;;4.93;;
14599;SDS011;7386;45.586;12.854;2023-06-04T00:42:31;6.40;;;5.00;;
14599;SDS011;7386;45.586;12.854;2023-06-04T00:45:00;6.55;;;5.22;;
14599;SDS011;7386;45.586;12.854;2023-06-04T00:47:28;6.38;;;5.43;;
14599;SDS011;7386;45.586;12.854;2023-06-04T00:49:57;8.15;;;5.80;;
14599;SDS011;7386;45.586;12.854;2023-06-04T00:52:26;6.35;;;5.00;;
14599;SDS011;7386;45.586;12.854;2023-06-04T00:54:56;5.47;;;4.88;;
14599;SDS011;7386;45.586;12.854;2023-06-04T00:57:24;6.43;;;5.68;;
14599;SDS011;7386;45.586;12.854;2023-06-04T00:59:53;7.22;;;5.00;;
14599;SDS011;7386;45.586;12.854;2023-06-04T01:02:22;5.80;;;5.10;;
14599;SDS011;7386;45.586;12.854;2023-06-04T01:04:53;6.80;;;5.43;;
14599;SDS011;7386;45.586;12.854;2023-06-04T01:07:22;6.50;;;5.35;;
14599;SDS011;7386;45.586;12.854;2023-06-04T01:09:51;6.28;;;5.10;;
14599;SDS011;7386;45.586;12.854;2023-06-04T01:12:21;8.18;;;5.25;;
14599;SDS011;7386;45.586;12.854;2023-06-04T01:14:50;6.60;;;5.70;;
14599;SDS011;7386;45.586;12.854;2023-06-04T01:17:19;6.25;;;5.65;;
14599;SDS011;7386;45.586;12.854;2023-06-04T01:19:57;7.38;;;6.13;;
14599;SDS011;7386;45.586;12.854;2023-06-04T01:22:35;8.48;;;5.40;;
14599;SDS011;7386;45.586;12.854;2023-06-04T01:25:15;7.65;;;6.07;;
14599;SDS011;7386;45.586;12.854;2023-06-04T01:27:49;5.95;;;5.35;;
14599;SDS011;7386;45.586;12.854;2023-06-04T01:30:19;6.70;;;5.70;;
14599;SDS011;7386;45.586;12.854;2023-06-04T01:32:48;7.78;;;6.32;;
14599;SDS011;7386;45.586;12.854;2023-06-04T01:35:17;7.80;;;6.25;;
14599;SDS011;7386;45.586;12.854;2023-06-04T01:37:45;7.45;;;6.13;;
14599;SDS011;7386;45.586;12.854;2023-06-04T01:40:15;8.77;;;6.38;;
14599;SDS011;7386;45.586;12.854;2023-06-04T01:42:43;7.47;;;6.00;;
14599;SDS011;7386;45.586;12.854;2023-06-04T01:45:13;7.28;;;6.43;;
14599;SDS011;7386;45.586;12.854;2023-06-04T01:47:41;7.25;;;6.22;;
14599;SDS011;7386;45.586;12.854;2023-06-04T01:50:10;8.10;;;6.60;;
14599;SDS011;7386;45.586;12.854;2023-06-04T01:52:39;8.05;;;6.82;;
14599;SDS011;7386;45.586;12.854;2023-06-04T01:55:08;10.32;;;6.95;;
14599;SDS011;7386;45.586;12.854;2023-06-04T01:57:38;7.80;;;6.43;;
14599;SDS011;7386;45.586;12.854;2023-06-04T02:00:08;7.80;;;6.82;;
14599;SDS011;7386;45.586;12.854;2023-06-04T02:02:38;9.43;;;7.20;;
14599;SDS011;7386;45.586;12.854;2023-06-04T02:05:08;8.60;;;6.43;;
14599;SDS011;7386;45.586;12.854;2023-06-04T02:07:37;8.50;;;6.65;;
14599;SDS011;7386;45.586;12.854;2023-06-04T02:10:06;7.93;;;6.90;;
14599;SDS011;7386;45.586;12.854;2023-06-04T02:12:35;8.32;;;7.10;;
14599;SDS011;7386;45.586;12.854;2023-06-04T02:15:05;8.80;;;7.07;;
14599;SDS011;7386;45.586;12.854;2023-06-04T02:17:33;8.07;;;6.72;;
14599;SDS011;7386;45.586;12.854;2023-06-04T02:20:07;8.35;;;6.63;;
14599;SDS011;7386;45.586;12.854;2023-06-04T02:22:37;8.95;;;6.78;;
14599;SDS011;7386;45.586;12.854;2023-06-04T02:25:06;8.40;;;7.03;;
14599;SDS011;7386;45.586;12.854;2023-06-04T02:27:35;8.65;;;7.15;;
14599;SDS011;7386;45.586;12.854;2023-06-04T02:30:04;8.00;;;6.32;;
14599;SDS011;7386;45.586;12.854;2023-06-04T02:32:33;8.65;;;7.28;;
14599;SDS011;7386;45.586;12.854;2023-06-04T02:35:02;9.23;;;7.68;;
14599;SDS011;7386;45.586;12.854;2023-06-04T02:37:32;8.88;;;7.40;;
14599;SDS011;7386;45.586;12.854;2023-06-04T02:40:01;10.48;;;7.63;;
14599;SDS011;7386;45.586;12.854;2023-06-04T02:42:30;8.48;;;7.57;;
14599;SDS011;7386;45.586;12.854;2023-06-04T02:44:59;8.90;;;7.45;;
14599;SDS011;7386;45.586;12.854;2023-06-04T02:47:28;10.55;;;7.35;;
14599;SDS011;7386;45.586;12.854;2023-06-04T02:49:56;8.18;;;7.22;;
14599;SDS011;7386;45.586;12.854;2023-06-04T02:52:25;10.45;;;7.65;;
14599;SDS011;7386;45.586;12.854;2023-06-04T02:54:54;9.35;;;7.80;;
14599;SDS011;7386;45.586;12.854;2023-06-04T02:57:23;9.43;;;8.32;;
14599;SDS011;7386;45.586;12.854;2023-06-04T02:59:52;9.38;;;7.57;;
14599;SDS011;7386;45.586;12.854;2023-06-04T03:02:21;11.05;;;8.82;;
14599;SDS011;7386;45.586;12.854;2023-06-04T03:04:50;11.45;;;8.10;;
14599;SDS011;7386;45.586;12.854;2023-06-04T03:07:18;10.95;;;8.23;;
14599;SDS011;7386;45.586;12.854;2023-06-04T03:09:49;9.10;;;7.53;;
14599;SDS011;7386;45.586;12.854;2023-06-04T03:12:18;9.93;;;8.13;;
14599;SDS011;7386;45.586;12.854;2023-06-04T03:14:47;11.98;;;8.40;;
14599;SDS011;7386;45.586;12.854;2023-06-04T03:17:16;12.35;;;8.10;;
14599;SDS011;7386;45.586;12.854;2023-06-04T03:19:44;10.02;;;8.95;;
14599;SDS011;7386;45.586;12.854;2023-06-04T03:22:14;9.85;;;8.68;;
14599;SDS011;7386;45.586;12.854;2023-06-04T03:24:42;13.77;;;9.23;;
14599;SDS011;7386;45.586;12.854;2023-06-04T03:27:11;12.55;;;9.60;;
14599;SDS011;7386;45.586;12.854;2023-06-04T03:29:41;11.77;;;9.60;;
14599;SDS011;7386;45.586;12.854;2023-06-04T03:32:09;11.38;;;8.57;;
14599;SDS011;7386;45.586;12.854;2023-06-04T03:34:38;10.88;;;8.95;;
14599;SDS011;7386;45.586;12.854;2023-06-04T03:37:07;11.07;;;9.55;;
14599;SDS011;7386;45.586;12.854;2023-06-04T03:39:36;10.15;;;8.73;;
14599;SDS011;7386;45.586;12.854;2023-06-04T03:42:04;11.75;;;9.60;;
14599;SDS011;7386;45.586;12.854;2023-06-04T03:44:33;10.23;;;8.70;;
14599;SDS011;7386;45.586;12.854;2023-06-04T03:47:03;14.35;;;9.07;;
14599;SDS011;7386;45.586;12.854;2023-06-04T03:49:32;10.88;;;8.98;;
14599;SDS011;7386;45.586;12.854;2023-06-04T03:52:00;12.43;;;10.23;;
14599;SDS011;7386;45.586;12.854;2023-06-04T03:54:29;11.45;;;9.77;;
14599;SDS011;7386;45.586;12.854;2023-06-04T03:56:58;12.32;;;10.73;;
14599;SDS011;7386;45.586;12.854;2023-06-04T03:59:26;11.48;;;10.27;;
14599;SDS011;7386;45.586;12.854;2023-06-04T04:01:55;12.40;;;10.15;;
14599;SDS011;7386;45.586;12.854;2023-06-04T04:04:25;11.60;;;9.80;;
14599;SDS011;7386;45.586;12.854;2023-06-04T04:06:53;11.63;;;10.13;;
14599;SDS011;7386;45.586;12.854;2023-06-04T04:09:22;13.18;;;10.75;;
14599;SDS011;7386;45.586;12.854;2023-06-04T04:11:50;13.88;;;11.23;;
14599;SDS011;7386;45.586;12.854;2023-06-04T04:14:19;12.90;;;10.73;;
14599;SDS011;7386;45.586;12.854;2023-06-04T04:16:47;13.25;;;11.70;;
14599;SDS011;7386;45.586;12.854;2023-06-04T04:19:16;15.93;;;11.35;;
14599;SDS011;7386;45.586;12.854;2023-06-04T04:21:46;13.65;;;11.40;;
14599;SDS011;7386;45.586;12.854;2023-06-04T04:24:21;15.38;;;11.82;;
14599;SDS011;7386;45.586;12.854;2023-06-04T04:26:50;14.07;;;11.13;;
14599;SDS011;7386;45.586;12.854;2023-06-04T04:29:19;13.73;;;11.35;;
14599;SDS011;7386;45.586;12.854;2023-06-04T04:31:51;13.02;;;10.93;;
14599;SDS011;7386;45.586;12.854;2023-06-04T04:34:19;14.50;;;11.48;;
14599;SDS011;7386;45.586;12.854;2023-06-04T04:36:49;13.10;;;11.70;;
14599;SDS011;7386;45.586;12.854;2023-06-04T04:39:19;16.10;;;12.13;;
14599;SDS011;7386;45.586;12.854;2023-06-04T04:41:48;12.48;;;11.10;;
14599;SDS011;7386;45.586;12.854;2023-06-04T04:44:16;15.38;;;11.63;;
14599;SDS011;7386;45.586;12.854;2023-06-04T04:46:45;16.02;;;12.45;;
14599;SDS011;7386;45.586;12.854;2023-06-04T04:49:14;13.00;;;11.57;;
14599;SDS011;7386;45.586;12.854;2023-06-04T04:51:42;15.52;;;11.95;;
14599;SDS011;7386;45.586;12.854;2023-06-04T04:54:12;14.48;;;12.20;;
14599;SDS011;7386;45.586;12.854;2023-06-04T04:56:41;14.05;;;12.52;;
14599;SDS011;7386;45.586;12.854;2023-06-04T04:59:09;14.57;;;12.18;;
14599;SDS011;7386;45.586;12.854;2023-06-04T05:01:38;13.85;;;11.75;;
14599;SDS011;7386;45.586;12.854;2023-06-04T05:04:07;14.18;;;12.18;;
14599;SDS011;7386;45.586;12.854;2023-06-04T05:06:36;14.20;;;11.82;;
14599;SDS011;7386;45.586;12.854;2023-06-04T05:09:05;14.93;;;12.70;;
14599;SDS011;7386;45.586;12.854;2023-06-04T05:11:35;21.55;;;11.57;;
14599;SDS011;7386;45.586;12.854;2023-06-04T05:14:04;17.02;;;12.48;;
14599;SDS011;7386;45.586;12.854;2023-06-04T05:16:33;13.82;;;12.02;;
14599;SDS011;7386;45.586;12.854;2023-06-04T05:19:02;15.60;;;13.00;;
14599;SDS011;7386;45.586;12.854;2023-06-04T05:21:31;15.38;;;12.65;;
14599;SDS011;7386;45.586;12.854;2023-06-04T05:24:00;16.48;;;12.70;;
14599;SDS011;7386;45.586;12.854;2023-06-04T05:26:29;16.25;;;12.88;;
14599;SDS011;7386;45.586;12.854;2023-06-04T05:28:58;13.68;;;11.68;;
14599;SDS011;7386;45.586;12.854;2023-06-04T05:31:27;13.20;;;11.63;;
14599;SDS011;7386;45.586;12.854;2023-06-04T05:33:59;14.70;;;12.80;;
14599;SDS011;7386;45.586;12.854;2023-06-04T05:36:29;14.95;;;13.05;;
14599;SDS011;7386;45.586;12.854;2023-06-04T05:38:57;19.45;;;13.80;;
14599;SDS011;7386;45.586;12.854;2023-06-04T05:41:26;14.77;;;12.93;;
14599;SDS011;7386;45.586;12.854;2023-06-04T05:43:55;13.93;;;11.65;;
14599;SDS011;7386;45.586;12.854;2023-06-04T05:46:25;14.77;;;12.13;;
14599;SDS011;7386;45.586;12.854;2023-06-04T05:48:53;14.38;;;12.02;;
14599;SDS011;7386;45.586;12.854;2023-06-04T05:51:22;15.80;;;12.70;;
14599;SDS011;7386;45.586;12.854;2023-06-04T05:53:51;13.80;;;11.73;;
14599;SDS011;7386;45.586;12.854;2023-06-04T05:56:20;15.18;;;12.65;;
14599;SDS011;7386;45.586;12.854;2023-06-04T05:58:51;13.40;;;11.65;;
14599;SDS011;7386;45.586;12.854;2023-06-04T06:01:19;12.75;;;11.43;;
14599;SDS011;7386;45.586;12.854;2023-06-04T06:03:49;14.52;;;11.35;;
14599;SDS011;7386;45.586;12.854;2023-06-04T06:06:18;13.70;;;10.90;;
14599;SDS011;7386;45.586;12.854;2023-06-04T06:08:47;13.82;;;10.30;;
14599;SDS011;7386;45.586;12.854;2023-06-04T06:11:17;15.18;;;10.13;;
14599;SDS011;7386;45.586;12.854;2023-06-04T06:13:45;12.38;;;9.93;;
14599;SDS011;7386;45.586;12.854;2023-06-04T06:16:14;11.68;;;9.15;;
14599;SDS011;7386;45.586;12.854;2023-06-04T06:18:43;14.10;;;9.43;;
14599;SDS011;7386;45.586;12.854;2023-06-04T06:21:13;13.40;;;10.52;;
14599;SDS011;7386;45.586;12.854;2023-06-04T06:23:42;12.10;;;9.52;;
14599;SDS011;7386;45.586;12.854;2023-06-04T06:26:11;13.60;;;9.63;;
14599;SDS011;7386;45.586;12.854;2023-06-04T06:28:40;11.10;;;9.77;;
14599;SDS011;7386;45.586;12.854;2023-06-04T06:31:08;13.93;;;9.70;;
14599;SDS011;7386;45.586;12.854;2023-06-04T06:33:37;12.32;;;9.27;;
14599;SDS011;7386;45.586;12.854;2023-06-04T06:36:07;12.90;;;9.25;;
14599;SDS011;7386;45.586;12.854;2023-06-04T06:38:37;12.35;;;10.27;;
14599;SDS011;7386;45.586;12.854;2023-06-04T06:41:06;8.73;;;7.32;;
14599;SDS011;7386;45.586;12.854;2023-06-04T06:43:35;8.50;;;6.90;;
14599;SDS011;7386;45.586;12.854;2023-06-04T06:46:03;6.50;;;5.72;;
14599;SDS011;7386;45.586;12.854;2023-06-04T06:48:32;6.57;;;5.20;;
14599;SDS011;7386;45.586;12.854;2023-06-04T06:51:00;6.38;;;5.50;;
14599;SDS011;7386;45.586;12.854;2023-06-04T06:53:29;6.82;;;5.43;;
14599;SDS011;7386;45.586;12.854;2023-06-04T06:55:58;7.05;;;5.22;;
14599;SDS011;7386;45.586;12.854;2023-06-04T06:58:27;5.78;;;5.03;;
14599;SDS011;7386;45.586;12.854;2023-06-04T07:00:55;6.15;;;5.35;;
14599;SDS011;7386;45.586;12.854;2023-06-04T07:03:24;7.88;;;6.03;;
14599;SDS011;7386;45.586;12.854;2023-06-04T07:05:53;6.32;;;5.68;;
14599;SDS011;7386;45.586;12.854;2023-06-04T07:08:21;6.50;;;5.50;;
14599;SDS011;7386;45.586;12.854;2023-06-04T07:10:50;6.82;;;6.13;;
14599;SDS011;7386;45.586;12.854;2023-06-04T07:13:20;6.07;;;5.38;;
14599;SDS011;7386;45.586;12.854;2023-06-04T07:15:49;6.75;;;5.22;;
14599;SDS011;7386;45.586;12.854;2023-06-04T07:18:18;5.82;;;5.25;;
14599;SDS011;7386;45.586;12.854;2023-06-04T07:20:46;7.10;;;5.57;;
14599;SDS011;7386;45.586;12.854;2023-06-04T07:23:15;8.63;;;6.18;;
14599;SDS011;7386;45.586;12.854;2023-06-04T07:25:44;6.68;;;5.75;;
14599;SDS011;7386;45.586;12.854;2023-06-04T07:28:12;6.25;;;5.25;;
14599;SDS011;7386;45.586;12.854;2023-06-04T07:30:44;5.72;;;4.80;;
14599;SDS011;7386;45.586;12.854;2023-06-04T07:33:12;6.00;;;5.40;;
14599;SDS011;7386;45.586;12.854;2023-06-04T07:35:41;7.03;;;5.65;;
14599;SDS011;7386;45.586;12.854;2023-06-04T07:38:10;6.63;;;5.80;;
14599;SDS011;7386;45.586;12.854;2023-06-04T07:40:38;6.93;;;5.47;;
14599;SDS011;7386;45.586;12.854;2023-06-04T07:43:07;6.68;;;5.55;;
14599;SDS011;7386;45.586;12.854;2023-06-04T07:45:35;6.70;;;6.00;;
14599;SDS011;7386;45.586;12.854;2023-06-04T07:48:05;8.60;;;6.30;;
14599;SDS011;7386;45.586;12.854;2023-06-04T07:50:34;7.15;;;5.97;;
14599;SDS011;7386;45.586;12.854;2023-06-04T07:53:06;7.05;;;6.13;;
14599;SDS011;7386;45.586;12.854;2023-06-04T07:55:34;7.05;;;6.18;;
14599;SDS011;7386;45.586;12.854;2023-06-04T07:58:03;7.97;;;6.57;;
14599;SDS011;7386;45.586;12.854;2023-06-04T08:00:32;8.88;;;7.03;;
14599;SDS011;7386;45.586;12.854;2023-06-04T08:03:01;7.70;;;6.57;;
14599;SDS011;7386;45.586;12.854;2023-06-04T08:05:31;7.15;;;5.80;;
14599;SDS011;7386;45.586;12.854;2023-06-04T08:08:00;8.73;;;7.10;;
14599;SDS011;7386;45.586;12.854;2023-06-04T08:10:29;8.95;;;7.45;;
14599;SDS011;7386;45.586;12.854;2023-06-04T08:12:58;7.82;;;6.50;;
14599;SDS011;7386;45.586;12.854;2023-06-04T08:15:26;10.13;;;7.70;;
14599;SDS011;7386;45.586;12.854;2023-06-04T08:17:55;8.32;;;6.78;;
14599;SDS011;7386;45.586;12.854;2023-06-04T08:20:24;13.25;;;7.85;;
14599;SDS011;7386;45.586;12.854;2023-06-04T08:22:54;7.53;;;6.50;;
14599;SDS011;7386;45.586;12.854;2023-06-04T08:25:22;7.18;;;6.40;;
14599;SDS011;7386;45.586;12.854;2023-06-04T08:27:51;10.13;;;7.07;;
14599;SDS011;7386;45.586;12.854;2023-06-04T08:30:19;9.48;;;8.10;;
14599;SDS011;7386;45.586;12.854;2023-06-04T08:32:48;8.73;;;6.72;;
14599;SDS011;7386;45.586;12.854;2023-06-04T08:35:16;8.88;;;7.38;;
14599;SDS011;7386;45.586;12.854;2023-06-04T08:37:45;9.18;;;6.85;;
14599;SDS011;7386;45.586;12.854;2023-06-04T08:40:15;10.70;;;8.23;;
14599;SDS011;7386;45.586;12.854;2023-06-04T08:42:43;11.48;;;7.70;;
14599;SDS011;7386;45.586;12.854;2023-06-04T08:45:12;11.13;;;7.70;;
14599;SDS011;7386;45.586;12.854;2023-06-04T08:47:43;10.50;;;7.03;;
14599;SDS011;7386;45.586;12.854;2023-06-04T08:50:13;11.60;;;8.02;;
14599;SDS011;7386;45.586;12.854;2023-06-04T08:52:43;8.98;;;7.18;;
14599;SDS011;7386;45.586;12.854;2023-06-04T08:55:11;7.25;;;6.18;;
14599;SDS011;7386;45.586;12.854;2023-06-04T08:57:42;10.43;;;7.10;;
14599;SDS011;7386;45.586;12.854;2023-06-04T09:00:11;8.43;;;7.15;;
14599;SDS011;7386;45.586;12.854;2023-06-04T09:02:40;11.57;;;7.93;;
14599;SDS011;7386;45.586;12.854;2023-06-04T09:05:08;11.98;;;7.63;;
14599;SDS011;7386;45.586;12.854;2023-06-04T09:07:38;11.98;;;7.75;;
14599;SDS011;7386;45.586;12.854;2023-06-04T09:10:07;7.65;;;6.38;;
14599;SDS011;7386;45.586;12.854;2023-06-04T09:12:40;9.00;;;7.00;;
14599;SDS011;7386;45.586;12.854;2023-06-04T09:15:12;8.20;;;6.70;;
14599;SDS011;7386;45.586;12.854;2023-06-04T09:17:40;7.28;;;5.55;;
14599;SDS011;7386;45.586;12.854;2023-06-04T09:20:17;8.73;;;6.15;;
14599;SDS011;7386;45.586;12.854;2023-06-04T09:22:46;12.15;;;7.65;;
14599;SDS011;7386;45.586;12.854;2023-06-04T09:25:21;9.70;;;6.20;;
14599;SDS011;7386;45.586;12.854;2023-06-04T09:27:51;8.00;;;6.82;;
14599;SDS011;7386;45.586;12.854;2023-06-04T09:30:23;9.27;;;7.47;;
14599;SDS011;7386;45.586;12.854;2023-06-04T09:32:52;9.10;;;7.32;;
14599;SDS011;7386;45.586;12.854;2023-06-04T09:35:21;12.02;;;7.00;;
14599;SDS011;7386;45.586;12.854;2023-06-04T09:37:53;8.85;;;7.05;;
14599;SDS011;7386;45.586;12.854;2023-06-04T09:40:22;7.10;;;6.32;;
14599;SDS011;7386;45.586;12.854;2023-06-04T09:42:51;7.97;;;6.85;;
14599;SDS011;7386;45.586;12.854;2023-06-04T09:45:30;8.70;;;7.18;;
14599;SDS011;7386;45.586;12.854;2023-06-04T09:47:59;12.02;;;7.20;;
14599;SDS011;7386;45.586;12.854;2023-06-04T09:50:29;9.75;;;7.20;;
14599;SDS011;7386;45.586;12.854;2023-06-04T09:52:58;8.50;;;6.78;;
14599;SDS011;7386;45.586;12.854;2023-06-04T09:55:28;9.00;;;7.10;;
14599;SDS011;7386;45.586;12.854;2023-06-04T09:57:57;7.15;;;6.28;;
14599;SDS011;7386;45.586;12.854;2023-06-04T10:00:27;8.85;;;6.70;;
14599;SDS011;7386;45.586;12.854;2023-06-04T10:02:58;11.43;;;7.20;;
14599;SDS011;7386;45.586;12.854;2023-06-04T10:05:29;8.82;;;7.13;;
14599;SDS011;7386;45.586;12.854;2023-06-04T10:07:59;9.23;;;6.50;;
14599;SDS011;7386;45.586;12.854;2023-06-04T10:10:30;12.40;;;7.80;;
14599;SDS011;7386;45.586;12.854;2023-06-04T10:13:03;8.35;;;6.43;;
14599;SDS011;7386;45.586;12.854;2023-06-04T10:15:33;8.23;;;6.95;;
14599;SDS011;7386;45.586;12.854;2023-06-04T10:18:05;8.07;;;6.00;;
14599;SDS011;7386;45.586;12.854;2023-06-04T10:20:34;9.40;;;7.13;;
14599;SDS011;7386;45.586;12.854;2023-06-04T10:23:02;8.35;;;6.97;;
14599;SDS011;7386;45.586;12.854;2023-06-04T10:25:31;8.73;;;6.95;;
14599;SDS011;7386;45.586;12.854;2023-06-04T10:28:00;8.68;;;6.75;;
14599;SDS011;7386;45.586;12.854;2023-06-04T10:30:30;11.25;;;7.40;;
14599;SDS011;7386;45.586;12.854;2023-06-04T10:32:59;13.38;;;8.13;;
14599;SDS011;7386;45.586;12.854;2023-06-04T10:35:32;14.80;;;8.32;;
14599;SDS011;7386;45.586;12.854;2023-06-04T10:38:05;8.23;;;6.68;;
14599;SDS011;7386;45.586;12.854;2023-06-04T10:40:34;7.03;;;6.32;;
14599;SDS011;7386;45.586;12.854;2023-06-04T10:43:06;8.13;;;7.25;;
14599;SDS011;7386;45.586;12.854;2023-06-04T10:45:35;10.35;;;7.18;;
14599;SDS011;7386;45.586;12.854;2023-06-04T10:48:04;9.45;;;6.55;;
14599;SDS011;7386;45.586;12.854;2023-06-04T10:50:34;8.40;;;7.47;;
14599;SDS011;7386;45.586;12.854;2023-06-04T10:53:03;8.82;;;7.35;;
14599;SDS011;7386;45.586;12.854;2023-06-04T10:55:32;10.73;;;7.68;;
14599;SDS011;7386;45.586;12.854;2023-06-04T10:58:01;9.40;;;6.90;;
14599;SDS011;7386;45.586;12.854;2023-06-04T11:00:36;9.45;;;6.90;;
14599;SDS011;7386;45.586;12.854;2023-06-04T11:03:05;8.57;;;7.35;;
14599;SDS011;7386;45.586;12.854;2023-06-04T11:05:36;10.05;;;7.72;;
14599;SDS011;7386;45.586;12.854;2023-06-04T11:08:05;8.85;;;7.13;;
14599;SDS011;7386;45.586;12.854;2023-06-04T11:10:35;9.32;;;7.38;;
14599;SDS011;7386;45.586;12.854;2023-06-04T11:13:04;8.65;;;7.45;;
14599;SDS011;7386;45.586;12.854;2023-06-04T11:15:40;9.57;;;7.38;;
14599;SDS011;7386;45.586;12.854;2023-06-04T11:18:13;7.90;;;6.97;;
14599;SDS011;7386;45.586;12.854;2023-06-04T11:20:44;8.13;;;6.82;;
14599;SDS011;7386;45.586;12.854;2023-06-04T11:23:13;10.57;;;7.47;;
14599;SDS011;7386;45.586;12.854;2023-06-04T11:25:43;9.27;;;7.70;;
14599;SDS011;7386;45.586;12.854;2023-06-04T11:28:15;8.15;;;7.07;;
14599;SDS011;7386;45.586;12.854;2023-06-04T11:30:55;8.15;;;6.78;;
14599;SDS011;7386;45.586;12.854;2023-06-04T11:33:24;8.02;;;7.00;;
14599;SDS011;7386;45.586;12.854;2023-06-04T11:35:54;7.68;;;6.85;;
14599;SDS011;7386;45.586;12.854;2023-06-04T11:38:22;7.85;;;6.80;;
14599;SDS011;7386;45.586;12.854;2023-06-04T11:40:54;8.43;;;7.47;;
14599;SDS011;7386;45.586;12.854;2023-06-04T11:43:23;8.10;;;6.80;;
14599;SDS011;7386;45.586;12.854;2023-06-04T11:45:52;10.07;;;7.65;;
14599;SDS011;7386;45.586;12.854;2023-06-04T11:48:20;8.15;;;6.78;;
14599;SDS011;7386;45.586;12.854;2023-06-04T11:50:49;8.95;;;6.57;;
14599;SDS011;7386;45.586;12.854;2023-06-04T11:53:19;7.25;;;6.53;;
14599;SDS011;7386;45.586;12.854;2023-06-04T11:55:48;7.40;;;6.35;;
14599;SDS011;7386;45.586;12.854;2023-06-04T11:58:16;7.68;;;6.88;;
14599;SDS011;7386;45.586;12.854;2023-06-04T12:00:45;9.82;;;6.80;;
14599;SDS011;7386;45.586;12.854;2023-06-04T12:03:13;8.25;;;6.30;;
14599;SDS011;7386;45.586;12.854;2023-06-04T12:05:42;8.15;;;6.32;;
14599;SDS011;7386;45.586;12.854;2023-06-04T12:08:10;7.18;;;6.28;;
14599;SDS011;7386;45.586;12.854;2023-06-04T12:10:40;8.48;;;6.68;;
14599;SDS011;7386;45.586;12.854;2023-06-04T12:13:09;7.88;;;6.07;;
14599;SDS011;7386;45.586;12.854;2023-06-04T12:15:38;6.80;;;6.10;;
14599;SDS011;7386;45.586;12.854;2023-06-04T12:18:07;10.70;;;7.28;;
14599;SDS011;7386;45.586;12.854;2023-06-04T12:20:37;9.25;;;7.55;;
14599;SDS011;7386;45.586;12.854;2023-06-04T12:23:06;7.47;;;6.68;;
14599;SDS011;7386;45.586;12.854;2023-06-04T12:25:34;8.60;;;6.80;;
14599;SDS011;7386;45.586;12.854;2023-06-04T12:28:07;9.65;;;6.80;;
14599;SDS011;7386;45.586;12.854;2023-06-04T12:30:45;8.05;;;6.43;;
14599;SDS011;7386;45.586;12.854;2023-06-04T12:33:13;8.73;;;6.57;;
14599;SDS011;7386;45.586;12.854;2023-06-04T12:35:42;7.30;;;6.53;;
14599;SDS011;7386;45.586;12.854;2023-06-04T12:38:11;8.55;;;6.78;;
14599;SDS011;7386;45.586;12.854;2023-06-04T12:40:40;7.93;;;6.20;;
14599;SDS011;7386;45.586;12.854;2023-06-04T12:43:10;9.00;;;6.65;;
14599;SDS011;7386;45.586;12.854;2023-06-04T12:45:38;7.47;;;6.53;;
14599;SDS011;7386;45.586;12.854;2023-06-04T12:48:07;7.15;;;5.85;;
14599;SDS011;7386;45.586;12.854;2023-06-04T12:50:35;8.35;;;6.68;;
14599;SDS011;7386;45.586;12.854;2023-06-04T12:53:04;7.55;;;6.78;;
14599;SDS011;7386;45.586;12.854;2023-06-04T12:55:32;7.38;;;6.40;;
14599;SDS011;7386;45.586;12.854;2023-06-04T12:58:01;6.82;;;6.13;;
14599;SDS011;7386;45.586;12.854;2023-06-04T13:00:31;6.80;;;6.10;;
14599;SDS011;7386;45.586;12.854;2023-06-04T13:02:59;7.40;;;6.03;;
14599;SDS011;7386;45.586;12.854;2023-06-04T13:05:28;7.35;;;6.13;;
14599;SDS011;7386;45.586;12.854;2023-06-04T13:07:56;6.43;;;5.72;;
14599;SDS011;7386;45.586;12.854;2023-06-04T13:10:25;6.80;;;6.10;;
14599;SDS011;7386;45.586;12.854;2023-06-04T13:12:53;6.90;;;6.05;;
14599;SDS011;7386;45.586;12.854;2023-06-04T13:15:22;6.78;;;6.07;;
14599;SDS011;7386;45.586;12.854;2023-06-04T13:17:52;8.23;;;6.13;;
14599;SDS011;7386;45.586;12.854;2023-06-04T13:20:20;7.10;;;6.05;;
14599;SDS011;7386;45.586;12.854;2023-06-04T13:22:49;6.45;;;5.70;;
14599;SDS011;7386;45.586;12.854;2023-06-04T13:25:17;6.38;;;5.78;;
14599;SDS011;7386;45.586;12.854;2023-06-04T13:27:48;6.50;;;5.90;;
14599;SDS011;7386;45.586;12.854;2023-06-04T13:30:17;6.57;;;5.88;;
14599;SDS011;7386;45.586;12.854;2023-06-04T13:32:45;8.77;;;7.35;;
14599;SDS011;7386;45.586;12.854;2023-06-04T13:35:16;6.78;;;5.85;;
14599;SDS011;7386;45.586;12.854;2023-06-04T13:37:44;6.55;;;5.85;;
14599;SDS011;7386;45.586;12.854;2023-06-04T13:40:13;8.13;;;6.40;;
14599;SDS011;7386;45.586;12.854;2023-06-04T13:42:42;6.75;;;6.00;;
14599;SDS011;7386;45.586;12.854;2023-06-04T13:45:10;7.30;;;5.85;;
14599;SDS011;7386;45.586;12.854;2023-06-04T13:47:39;7.32;;;6.18;;
14599;SDS011;7386;45.586;12.854;2023-06-04T13:50:08;7.75;;;5.82;;
14599;SDS011;7386;45.586;12.854;2023-06-04T13:52:38;9.18;;;5.68;;
14599;SDS011;7386;45.586;12.854;2023-06-04T13:55:07;7.50;;;6.60;;
14599;SDS011;7386;45.586;12.854;2023-06-04T13:57:35;7.90;;;6.20;;
14599;SDS011;7386;45.586;12.854;2023-06-04T14:00:04;6.38;;;5.60;;
14599;SDS011;7386;45.586;12.854;2023-06-04T14:02:34;8.10;;;6.47;;
14599;SDS011;7386;45.586;12.854;2023-06-04T14:05:04;7.07;;;6.35;;
14599;SDS011;7386;45.586;12.854;2023-06-04T14:07:33;6.43;;;5.75;;
14599;SDS011;7386;45.586;12.854;2023-06-04T14:10:03;7.03;;;6.32;;
14599;SDS011;7386;45.586;12.854;2023-06-04T14:12:31;7.00;;;5.80;;
14599;SDS011;7386;45.586;12.854;2023-06-04T14:15:00;7.15;;;6.00;;
14599;SDS011;7386;45.586;12.854;2023-06-04T14:17:29;6.43;;;5.65;;
14599;SDS011;7386;45.586;12.854;2023-06-04T14:19:57;7.35;;;6.03;;
14599;SDS011;7386;45.586;12.854;2023-06-04T14:22:26;6.20;;;5.60;;
14599;SDS011;7386;45.586;12.854;2023-06-04T14:24:54;7.85;;;6.57;;
14599;SDS011;7386;45.586;12.854;2023-06-04T14:27:24;7.07;;;6.38;;
14599;SDS011;7386;45.586;12.854;2023-06-04T14:29:54;6.95;;;6.05;;
14599;SDS011;7386;45.586;12.854;2023-06-04T14:32:23;8.80;;;6.90;;
14599;SDS011;7386;45.586;12.854;2023-06-04T14:34:51;8.00;;;6.75;;
14599;SDS011;7386;45.586;12.854;2023-06-04T14:37:20;7.50;;;6.15;;
14599;SDS011;7386;45.586;12.854;2023-06-04T14:39:48;7.05;;;6.18;;
14599;SDS011;7386;45.586;12.854;2023-06-04T14:42:17;7.57;;;6.75;;
14599;SDS011;7386;45.586;12.854;2023-06-04T14:44:47;9.13;;;6.45;;
14599;SDS011;7386;45.586;12.854;2023-06-04T14:47:15;7.32;;;6.43;;
14599;SDS011;7386;45.586;12.854;2023-06-04T14:49:44;6.95;;;5.78;;
14599;SDS011;7386;45.586;12.854;2023-06-04T14:52:12;7.30;;;6.28;;